• Join FlightAware (Why Join?)
  • Login
  • US Flag 
04:07PM EST


 

Airport Tracker/Info


-or-


 

Live Flight TrackerFlight Track Log ✈ BXR1966 ✈ 22-Jun-2013 ✈ KMHR - KACV

Flight Track Log - Related Links

Times and Time Zones

All times are in EDT time to prevent confusion due to time zone crossing. See the BXR1966 flight status page for this flight to view local times or setup timezone preferences in your user account.

Time Position Orientation Groundspeed Altitude Reporting Facility
EDT Latitude Longitude Course Direction KTS MPH feet Rate Location/Type
10:28AM 38.5833 -121.2833 339° North 115 132 1,100  Level Northern Cal TRACON
10:30AM 38.6167 -121.3000 339° North 118 136 1,700 420 Climbing Northern Cal TRACON
10:31AM 38.6333 -121.3167 322° Northwest 116 133 2,000 120 Climbing Northern Cal TRACON
10:32AM 38.6667 -121.3333 339° North 118 136 2,000  Level Northern Cal TRACON
10:34AM 38.6780 -121.4241 279° West  Level FlightAware Approximate
10:41AM 38.8945 -121.6663 313° West  Level Estimated
10:42AM 38.9140 -121.7126 299° West  Level FlightAware Approximate
10:43AM 38.9336 -121.7590 299° West  Level FlightAware Approximate
10:44AM 38.9532 -121.8053 298° West  Level FlightAware Approximate
10:45AM 38.9727 -121.8517 298° West  Level FlightAware Approximate
10:46AM 39.0041 -121.8857 311° West  Level Estimated
10:47AM 39.0256 -121.9307 302° West  Level FlightAware Approximate
10:48AM 39.0471 -121.9757 302° West  Level FlightAware Approximate
10:49AM 39.0787 -122.0093 270° West  Level Estimated
10:50AM 39.0759 -122.0620 266° West  Level FlightAware Approximate
10:51AM 39.0731 -122.1148 266° West  Level FlightAware Approximate
10:52AM 39.0703 -122.1675 266° West  Level FlightAware Approximate
10:52AM 38.7167 -121.5000 339° North 133 153 3,200  Level Northern Cal TRACON
10:53AM 39.1029 -122.1995 269° West  Level Estimated
10:53AM 38.7500 -121.5333 322° Northwest 132 152 3,800  Level Northern Cal TRACON
10:54AM 39.1005 -122.2523 267° West  Level FlightAware Approximate
10:54AM 38.7833 -121.5500 339° North 130 150 4,400  Level Northern Cal TRACON
10:55AM 39.0981 -122.3051 267° West  Level FlightAware Approximate
10:55AM 38.8000 -121.5833 303° West 128 147 5,100  Level Northern Cal TRACON
10:56AM 39.0957 -122.3578 267° West  Level FlightAware Approximate
10:56AM 38.8333 -121.6167 322° Northwest 130 150 5,700  Level Northern Cal TRACON
10:57AM 39.0932 -122.4106 267° West  Level FlightAware Approximate
10:57AM 38.8667 -121.6500 322° Northwest 132 152 6,400  Level Northern Cal TRACON
10:58AM 38.8833 -121.6833 303° West 133 153 7,100 660 Climbing Northern Cal TRACON
10:59AM 38.9167 -121.7167 322° Northwest 136 157 7,800 660 Climbing Northern Cal TRACON
11:00AM 38.9333 -121.7500 303° West 138 159 8,500 720 Climbing Northern Cal TRACON
11:01AM 38.9667 -121.7833 322° Northwest 136 157 9,300 660 Climbing Northern Cal TRACON
11:02AM 39.0000 -121.8167 322° Northwest 140 161 10,000 660 Climbing Northern Cal TRACON
11:03AM 39.0167 -121.8500 303° West 137 158 10,700 300 Climbing Northern Cal TRACON
11:04AM 39.0500 -121.8833 322° Northwest 158 182 10,700 -60 Level Northern Cal TRACON
11:05AM 39.0833 -121.9333 311° West 164 189 10,600  Descending Northern Cal TRACON
11:06AM 39.1167 -121.9667 322° Northwest 161 185 10,700  Climbing Northern Cal TRACON
11:07AM 39.1500 -122.0167 311° West 161 185 10,700 -60 Level Northern Cal TRACON
11:09AM 39.1288 -122.0720 244° Southwest  Level FlightAware Approximate
11:10AM 39.2208 -122.1044 244° Southwest 162 186 10,600  Level Seattle Center
11:11AM 39.2542 -122.1444 317° Northwest 163 188 10,600  Level Seattle Center
11:12AM 39.2850 -122.1831 316° Northwest 159 183 10,700  Climbing Oakland Center
11:13AM 39.3167 -122.2214 317° Northwest 157 181 10,700  Level Oakland Center
11:14AM 39.3475 -122.2614 315° West 158 182 10,800  Climbing Oakland Center
11:15AM 39.3800 -122.3014 316° Northwest 160 184 10,700 -120 Descending Oakland Center
11:16AM 39.4128 -122.3433 315° West 164 189 10,600 -60 Descending Oakland Center
11:17AM 39.4458 -122.3844 316° Northwest 165 190 10,600  Level Oakland Center
11:18AM 39.4767 -122.4258 314° West 162 186 10,700  Climbing Oakland Center
11:19AM 39.5092 -122.4683 315° West 164 189 10,600 -60 Descending Oakland Center
11:20AM 39.5419 -122.5092 316° Northwest 164 189 10,600 60 Level Oakland Center
11:21AM 39.5814 -122.5578 316° Northwest 163 188 10,800 60 Climbing Oakland Center
11:22AM 39.6131 -122.5992 315° West 162 186 10,800  Level Oakland Center
11:23AM 39.6456 -122.6414 315° West 164 189 10,800  Level Oakland Center
11:24AM 39.6783 -122.6833 315° West 164 189 10,800  Level Oakland Center
11:25AM 39.7106 -122.7253 315° West 164 189 10,800 -120 Level Oakland Center
11:26AM 39.7436 -122.7675 316° Northwest 166 191 10,600 -60 Descending Oakland Center
11:27AM 39.7756 -122.8100 314° West 165 190 10,700  Climbing Oakland Center
11:28AM 39.8094 -122.8511 317° Northwest 166 191 10,600  Descending Oakland Center
11:29AM 39.8428 -122.8944 315° West 167 192 10,700  Climbing Oakland Center
11:30AM 39.8767 -122.9375 316° Northwest 170 196 10,700 -60 Level Oakland Center
11:31AM 39.9089 -122.9800 315° West 167 192 10,600  Descending Oakland Center
11:32AM 39.9414 -123.0233 314° West 167 192 10,700  Climbing Oakland Center
11:33AM 39.9797 -123.0717 316° Northwest 161 185 10,600  Descending Oakland Center
11:34AM 40.0119 -123.1144 315° West 162 186 10,700 60 Climbing Oakland Center
11:35AM 40.0439 -123.1564 315° West 163 188 10,800  Climbing Oakland Center
11:36AM 40.0764 -123.1975 316° Northwest 162 186 10,700 -60 Descending Oakland Center
11:37AM 40.1094 -123.2394 316° Northwest 164 189 10,700  Level Oakland Center
11:38AM 40.1397 -123.2783 316° Northwest 166 191 10,800 -60 Climbing Oakland Center
11:39AM 40.1781 -123.3308 314° West 166 191 10,600 -120 Descending Oakland Center
11:40AM 40.2125 -123.3739 316° Northwest 170 196 10,600 -60 Level Oakland Center
11:41AM 40.2467 -123.4175 316° Northwest 171 197 10,500 -60 Descending Oakland Center
11:42AM 40.2803 -123.4631 314° West 173 199 10,500  Level Oakland Center
11:43AM 40.3117 -123.5056 314° West 169 194 10,500  Level Oakland Center
11:44AM 40.3444 -123.5469 316° Northwest 165 190 10,600  Climbing Oakland Center
11:45AM 40.3756 -123.5903 313° West 164 189 10,600  Level Oakland Center
11:46AM 40.4008 -123.6239 315° West 164 189 10,600 -120 Level Seattle Center
11:47AM 40.4394 -123.6756 314° West 165 190 10,400 -180 Descending Seattle Center
11:48AM 40.4717 -123.7181 315° West 165 190 10,300 -300 Descending Seattle Center
11:49AM 40.5006 -123.7653 309° West 166 191 9,900 -540 Descending Seattle Center
11:50AM 40.5164 -123.8214 290° West 166 191 9,300 -540 Descending Seattle Center
11:51AM 40.5550 -123.8531 328° Northwest 164 189 8,900 -480 Descending Seattle Center
11:52AM 40.5933 -123.8811 331° Northwest 162 186 8,400 -600 Descending Seattle Center
11:53AM 40.6322 -123.9033 337° Northwest 158 182 7,800 -660 Descending Seattle Center
11:54AM 40.6731 -123.9156 347° North 153 176 7,100 -900 Descending Seattle Center
11:55AM 40.7103 -123.9311 342° North 148 170 6,000 -1,140 Descending Seattle Center
11:56AM 40.7442 -123.9500 337° Northwest 141 162 4,900 -900 Descending Seattle Center
11:57AM 40.7742 -123.9742 329° Northwest 133 153 4,200 -780 Descending Seattle Center
11:58AM 40.8114 -123.9983 334° Northwest 128 147 3,400 -720 Descending Seattle Center
11:59AM 40.8411 -124.0189 332° Northwest 125 144 2,800 -600 Descending Seattle Center
12:00PM 40.8717 -124.0381 335° Northwest 122 140 2,200 -600 Descending Seattle Center
12:01PM 40.9017 -124.0581 333° Northwest 121 139 1,600 -660 Descending Seattle Center
12:02PM 40.9336 -124.0792 333° Northwest 124 143 900 -540 Descending Seattle Center
12:03PM 40.9383 -124.1072 283° West 132 152 600 -240 Descending Seattle Center
12:04PM 40.9097 -124.1156 192° South 114 131 500  Descending Seattle Center
12:05PM 40.8769 -124.1175 183° South 115 132 600 60 Climbing Seattle Center
12:07PM 40.9139 -124.1103 North  Level FlightAware Approximate